createdAt,value
2022-11-06T00:03:06.992Z,19.98
2022-11-06T00:08:12.091Z,19.99
2022-11-06T00:13:16.831Z,20.00
2022-11-06T00:18:21.276Z,20.01
2022-11-06T00:23:25.621Z,20.01
2022-11-06T00:28:29.810Z,20.01
2022-11-06T00:33:34.364Z,20.01
2022-11-06T00:38:38.524Z,20.03
2022-11-06T00:43:42.910Z,20.03
2022-11-06T00:48:47.194Z,20.03
2022-11-06T00:53:55.752Z,20.01
2022-11-06T00:59:00.925Z,20.01
2022-11-06T01:04:06.712Z,20.00
2022-11-06T01:09:11.991Z,20.00
2022-11-06T01:14:16.951Z,20.01
2022-11-06T01:19:21.761Z,20.01
2022-11-06T01:24:27.400Z,20.01
2022-11-06T01:29:31.851Z,20.01
2022-11-06T01:34:36.545Z,20.01
2022-11-06T01:39:41.174Z,19.98
2022-11-06T01:45:03.791Z,19.99
2022-11-06T01:50:10.301Z,19.97
2022-11-06T01:55:16.275Z,19.98
2022-11-06T02:00:20.800Z,19.98
2022-11-06T02:05:25.003Z,19.97
2022-11-06T02:10:30.090Z,19.96
2022-11-06T02:15:39.606Z,19.95
2022-11-06T02:20:47.660Z,19.98
2022-11-06T02:25:53.848Z,19.96
2022-11-06T02:30:59.173Z,19.94
2022-11-06T02:36:07.415Z,19.93
2022-11-06T02:41:13.700Z,19.95
2022-11-06T02:46:20.505Z,19.94
2022-11-06T02:51:27.480Z,19.89
2022-11-06T02:56:33.675Z,19.91
2022-11-06T03:01:40.500Z,19.92
2022-11-06T03:06:46.944Z,19.93
2022-11-06T03:11:54.949Z,19.90
2022-11-06T03:17:00.731Z,19.90
2022-11-06T03:22:08.643Z,19.88
2022-11-06T03:27:14.969Z,19.88
2022-11-06T03:32:21.259Z,19.86
2022-11-06T03:37:29.540Z,19.85
2022-11-06T03:42:34.172Z,19.84
2022-11-06T03:47:39.920Z,19.83
2022-11-06T03:52:48.982Z,19.80
2022-11-06T03:57:55.760Z,19.79
2022-11-06T04:03:05.347Z,19.79
2022-11-06T04:08:25.128Z,19.75
2022-11-06T04:13:49.734Z,19.76
2022-11-06T04:18:54.352Z,19.74
2022-11-06T04:24:27.181Z,19.73
2022-11-06T04:29:41.860Z,19.70
2022-11-06T04:34:47.694Z,19.70
2022-11-06T04:39:55.052Z,19.66
2022-11-06T04:45:01.003Z,19.65
2022-11-06T04:50:06.600Z,19.63
2022-11-06T04:55:10.961Z,19.61
2022-11-06T05:00:16.606Z,19.61
2022-11-06T05:05:20.716Z,19.58
2022-11-06T05:10:25.133Z,19.55
2022-11-06T05:15:29.211Z,19.54
2022-11-06T05:20:33.917Z,19.52
2022-11-06T05:25:39.861Z,19.50
2022-11-06T05:30:45.957Z,19.49
2022-11-06T05:35:50.570Z,19.48
2022-11-06T05:40:54.895Z,19.46
2022-11-06T05:46:00.182Z,19.45
2022-11-06T05:51:05.102Z,19.43
2022-11-06T05:56:09.734Z,19.42
2022-11-06T06:01:14.271Z,19.41
2022-11-06T06:06:19.461Z,19.38
2022-11-06T06:11:23.595Z,19.37
2022-11-06T06:16:27.961Z,19.36
2022-11-06T06:21:32.515Z,19.33
2022-11-06T06:26:37.041Z,19.33
2022-11-06T06:31:41.311Z,19.30
2022-11-06T06:36:45.731Z,19.31
2022-11-06T06:41:49.851Z,19.30
2022-11-06T06:46:54.151Z,19.29
2022-11-06T06:51:58.421Z,19.30
2022-11-06T06:57:02.771Z,19.29
2022-11-06T07:02:07.698Z,19.29
2022-11-06T07:07:11.791Z,19.28
2022-11-06T07:12:16.266Z,19.29
2022-11-06T07:17:20.701Z,19.31
2022-11-06T07:22:33.794Z,19.29
2022-11-06T07:27:41.863Z,19.33
2022-11-06T07:32:46.328Z,19.34
2022-11-06T07:37:50.841Z,19.34
2022-11-06T07:42:54.741Z,19.32
2022-11-06T07:47:59.327Z,19.34
2022-11-06T07:53:03.861Z,19.34
2022-11-06T07:58:08.020Z,19.34
2022-11-06T08:03:12.561Z,19.36
2022-11-06T08:08:17.120Z,19.37
2022-11-06T08:13:21.921Z,19.37
2022-11-06T08:18:26.545Z,19.38
2022-11-06T08:23:30.815Z,19.38
2022-11-06T08:28:35.090Z,19.41
2022-11-06T08:33:40.334Z,19.43
2022-11-06T08:38:44.680Z,19.47
2022-11-06T08:43:51.320Z,19.47
2022-11-06T08:48:55.441Z,19.49
2022-11-06T08:53:59.953Z,19.51
2022-11-06T08:59:04.262Z,19.53
2022-11-06T09:04:08.711Z,19.57
2022-11-06T09:09:13.063Z,19.67
2022-11-06T09:14:17.303Z,19.76
2022-11-06T09:19:21.641Z,19.79
2022-11-06T09:24:49.710Z,19.79
2022-11-06T09:29:50.522Z,19.85
2022-11-06T09:34:54.551Z,19.89
2022-11-06T09:40:04.775Z,19.90
2022-11-06T09:45:12.711Z,19.91
2022-11-06T09:50:18.913Z,19.94
2022-11-06T09:55:25.285Z,19.91
2022-11-06T10:00:30.462Z,19.91
2022-11-06T10:05:35.841Z,19.94
2022-11-06T10:10:46.502Z,19.95
2022-11-06T10:15:54.547Z,20.00
2022-11-06T10:21:05.504Z,19.99
2022-11-06T10:26:12.685Z,19.98
2022-11-06T10:31:20.772Z,20.01
2022-11-06T10:36:29.327Z,19.99
2022-11-06T10:41:37.636Z,20.01
2022-11-06T10:46:46.682Z,20.02
2022-11-06T10:51:58.556Z,20.04
2022-11-06T10:57:12.541Z,20.03
2022-11-06T11:02:23.384Z,20.05
2022-11-06T11:07:30.226Z,20.06
2022-11-06T11:12:34.522Z,20.03
2022-11-06T11:17:38.871Z,20.03
2022-11-06T11:22:42.912Z,20.01
2022-11-06T11:27:47.232Z,19.98
2022-11-06T11:32:52.200Z,19.97
2022-11-06T11:38:06.491Z,19.98
2022-11-06T11:43:23.422Z,19.98
2022-11-06T11:48:28.022Z,19.98
2022-11-06T11:53:32.382Z,19.99
2022-11-06T11:58:38.551Z,20.04
2022-11-06T12:03:45.275Z,20.05
2022-11-06T12:08:51.522Z,20.04
2022-11-06T12:14:22.360Z,20.03
2022-11-06T12:19:29.450Z,20.06
2022-11-06T12:24:37.773Z,20.04
2022-11-06T12:29:44.984Z,19.99
2022-11-06T12:34:53.314Z,19.99
2022-11-06T12:40:01.825Z,20.00
2022-11-06T12:45:11.860Z,19.99
2022-11-06T12:50:22.391Z,19.96
2022-11-06T12:55:30.674Z,19.89
2022-11-06T13:00:38.562Z,19.88
2022-11-06T13:05:48.590Z,19.87
2022-11-06T13:10:57.999Z,19.89
2022-11-06T13:16:05.568Z,19.82
2022-11-06T13:21:13.143Z,19.82
2022-11-06T13:26:19.184Z,19.82
2022-11-06T13:31:26.745Z,19.84
2022-11-06T13:36:31.840Z,19.79
2022-11-06T13:41:36.249Z,19.79
2022-11-06T13:46:47.170Z,19.79
2022-11-06T13:51:53.660Z,19.77
2022-11-06T13:57:16.993Z,19.77
2022-11-06T14:02:35.012Z,19.76
2022-11-06T14:07:41.288Z,19.75
2022-11-06T14:12:47.504Z,19.73
2022-11-06T14:17:56.256Z,19.70
2022-11-06T14:23:17.980Z,19.69
2022-11-06T14:28:30.490Z,19.68
2022-11-06T14:33:52.664Z,19.67
2022-11-06T14:38:56.960Z,19.66
2022-11-06T14:44:02.151Z,19.64
2022-11-06T14:49:09.901Z,19.65
2022-11-06T14:54:20.730Z,19.63
2022-11-06T14:59:30.410Z,19.63
2022-11-06T15:04:35.492Z,19.62
2022-11-06T15:09:47.049Z,19.59
2022-11-06T15:15:04.167Z,19.59
2022-11-06T15:20:16.018Z,19.56
2022-11-06T15:25:22.117Z,19.55
2022-11-06T15:30:27.151Z,19.53
2022-11-06T15:35:34.081Z,19.51
2022-11-06T15:40:39.310Z,19.50
2022-11-06T15:45:43.655Z,19.49
2022-11-06T15:50:48.268Z,19.46
2022-11-06T15:55:55.779Z,19.44
2022-11-06T16:01:01.248Z,19.45
2022-11-06T16:06:05.951Z,19.45
2022-11-06T16:11:13.551Z,19.42
2022-11-06T16:16:34.798Z,19.44
2022-11-06T16:21:39.351Z,19.43
2022-11-06T16:26:46.123Z,19.41
2022-11-06T16:32:00.321Z,19.40
2022-11-06T16:37:05.421Z,19.40
2022-11-06T16:42:21.732Z,19.39
2022-11-06T16:47:26.372Z,19.39
2022-11-06T16:52:32.210Z,19.37
2022-11-06T16:57:42.772Z,19.35
2022-11-06T17:02:48.359Z,19.34
2022-11-06T17:08:05.543Z,19.32
2022-11-06T17:13:17.233Z,19.33
2022-11-06T17:18:22.655Z,19.31
2022-11-06T17:23:27.626Z,19.28
2022-11-06T17:28:32.243Z,19.26
2022-11-06T17:33:36.722Z,19.26
2022-11-06T17:38:41.211Z,19.25
2022-11-06T17:43:45.670Z,19.23
2022-11-06T17:48:50.080Z,19.19
2022-11-06T17:53:54.597Z,19.18
2022-11-06T17:58:59.041Z,19.16
2022-11-06T18:04:03.804Z,19.15
2022-11-06T18:09:08.601Z,19.14
2022-11-06T18:14:13.083Z,19.12
2022-11-06T18:19:18.674Z,19.13
2022-11-06T18:24:23.601Z,19.11
2022-11-06T18:29:27.975Z,19.11
2022-11-06T18:34:32.561Z,19.10
2022-11-06T18:39:37.064Z,19.10
2022-11-06T18:44:41.700Z,19.11
2022-11-06T18:49:45.740Z,19.09
2022-11-06T18:54:50.111Z,19.07
2022-11-06T18:59:54.142Z,19.08
2022-11-06T19:04:59.638Z,19.07
2022-11-06T19:10:04.541Z,19.06
2022-11-06T19:15:09.709Z,19.05
2022-11-06T19:20:15.209Z,19.04
2022-11-06T19:25:20.081Z,19.04
2022-11-06T19:30:24.585Z,19.02
2022-11-06T19:35:28.920Z,19.01
2022-11-06T19:40:33.191Z,19.01
2022-11-06T19:45:37.761Z,18.99
2022-11-06T19:50:59.217Z,18.98
2022-11-06T19:56:05.625Z,18.99
2022-11-06T20:01:12.697Z,18.97
2022-11-06T20:06:17.242Z,18.96
2022-11-06T20:11:22.136Z,18.94
2022-11-06T20:16:27.217Z,18.94
2022-11-06T20:21:31.890Z,18.93
2022-11-06T20:26:36.665Z,18.93
2022-11-06T20:31:41.596Z,18.92
2022-11-06T20:36:45.903Z,18.92
2022-11-06T20:41:50.634Z,18.91
2022-11-06T20:46:55.051Z,18.90
2022-11-06T20:52:15.470Z,18.90
2022-11-06T20:57:20.317Z,18.90
2022-11-06T21:02:24.611Z,18.88
2022-11-06T21:07:29.414Z,18.87
2022-11-06T21:12:34.090Z,18.86
2022-11-06T21:17:40.842Z,18.85
2022-11-06T21:22:44.900Z,18.85
2022-11-06T21:27:49.489Z,18.85
2022-11-06T21:32:53.790Z,18.84
2022-11-06T21:37:57.980Z,18.83
2022-11-06T21:43:02.568Z,18.82
2022-11-06T21:48:14.716Z,18.81
2022-11-06T21:53:50.181Z,18.83
2022-11-06T21:58:55.557Z,18.80
2022-11-06T22:04:00.440Z,18.79
2022-11-06T22:09:05.024Z,18.78
2022-11-06T22:14:10.921Z,18.78
2022-11-06T22:19:15.724Z,18.76
2022-11-06T22:24:20.083Z,18.75
2022-11-06T22:29:24.534Z,18.74
2022-11-06T22:34:28.903Z,18.74
2022-11-06T22:39:33.485Z,18.72
2022-11-06T22:44:38.238Z,18.71
2022-11-06T22:49:42.572Z,18.71
2022-11-06T22:54:46.941Z,18.70
2022-11-06T22:59:51.190Z,18.70
2022-11-06T23:04:55.623Z,18.69
2022-11-06T23:10:00.251Z,18.67
2022-11-06T23:15:04.920Z,18.67
2022-11-06T23:20:10.302Z,18.67
2022-11-06T23:25:15.120Z,18.66
2022-11-06T23:30:19.721Z,18.64
2022-11-06T23:35:26.927Z,18.63
2022-11-06T23:40:35.341Z,18.64
2022-11-06T23:45:49.090Z,18.63
2022-11-06T23:50:53.552Z,18.62
2022-11-06T23:55:58.201Z,18.61
